createdAt,value
2024-04-21T00:02:16.446Z,4.1
2024-04-21T00:03:30.735Z,4.1
2024-04-21T00:04:45.028Z,4.1
2024-04-21T00:05:59.328Z,4.2
2024-04-21T00:07:13.616Z,4.2
2024-04-21T00:08:27.907Z,4.1
2024-04-21T00:09:42.201Z,4.1
2024-04-21T00:10:56.500Z,4.2
2024-04-21T00:12:09.810Z,4.1
2024-04-21T00:13:24.108Z,4.1
2024-04-21T00:14:38.395Z,4.1
2024-04-21T00:15:52.689Z,4.1
2024-04-21T00:17:06.984Z,4.1
2024-04-21T00:18:21.283Z,4.1
2024-04-21T00:19:35.570Z,4.1
2024-04-21T00:20:49.865Z,4.1
2024-04-21T00:22:04.162Z,4.1
2024-04-21T00:23:18.449Z,4.1
2024-04-21T00:24:32.753Z,4.1
2024-04-21T00:25:47.042Z,4.1
2024-04-21T00:27:01.337Z,4.1
2024-04-21T00:28:14.643Z,4.1
2024-04-21T00:29:28.942Z,4
2024-04-21T00:30:43.239Z,4
2024-04-21T00:31:57.530Z,4
2024-04-21T00:33:11.821Z,4
2024-04-21T00:34:26.117Z,4
2024-04-21T00:35:40.408Z,4
2024-04-21T00:36:54.706Z,4
2024-04-21T00:38:09.001Z,4
2024-04-21T00:39:23.294Z,4
2024-04-21T00:40:37.582Z,4
2024-04-21T00:41:51.882Z,4
2024-04-21T00:43:06.176Z,4
2024-04-21T00:44:19.488Z,4
2024-04-21T00:45:33.778Z,4
2024-04-21T00:46:48.074Z,4
2024-04-21T00:48:02.364Z,4
2024-04-21T00:49:16.655Z,3.9
2024-04-21T00:50:30.957Z,3.9
2024-04-21T00:51:45.247Z,3.9
2024-04-21T00:52:59.544Z,3.8
2024-04-21T00:54:13.837Z,3.8
2024-04-21T00:55:28.123Z,3.8
2024-04-21T00:56:42.420Z,3.8
2024-04-21T00:57:56.711Z,3.8
2024-04-21T00:59:11.005Z,3.7
2024-04-21T01:00:24.321Z,3.7
2024-04-21T01:01:38.608Z,3.7
2024-04-21T01:02:52.910Z,3.7
2024-04-21T01:04:07.203Z,3.7
2024-04-21T01:05:21.492Z,3.7
2024-04-21T01:06:35.788Z,3.7
2024-04-21T01:07:50.083Z,3.7
2024-04-21T01:09:04.373Z,3.7
2024-04-21T01:10:18.668Z,3.7
2024-04-21T01:11:32.961Z,3.7
2024-04-21T01:12:47.260Z,3.7
2024-04-21T01:14:01.552Z,3.7
2024-04-21T01:15:15.841Z,3.7
2024-04-21T01:16:29.150Z,3.7
2024-04-21T01:17:43.443Z,3.7
2024-04-21T01:18:57.745Z,3.7
2024-04-21T01:20:12.032Z,3.7
2024-04-21T01:21:26.331Z,3.7
2024-04-21T01:22:40.621Z,3.8
2024-04-21T01:23:54.916Z,3.8
2024-04-21T01:25:09.214Z,3.8
2024-04-21T01:26:23.506Z,3.8
2024-04-21T01:27:37.800Z,3.8
2024-04-21T01:28:52.089Z,3.8
2024-04-21T01:30:06.381Z,3.8
2024-04-21T01:31:20.675Z,3.8
2024-04-21T01:32:33.991Z,3.8
2024-04-21T01:33:48.286Z,3.8
2024-04-21T01:35:02.575Z,3.8
2024-04-21T01:36:16.871Z,3.8
2024-04-21T01:37:31.169Z,3.8
2024-04-21T01:38:45.456Z,3.8
2024-04-21T01:39:59.753Z,3.8
2024-04-21T01:41:14.050Z,3.8
2024-04-21T01:42:28.339Z,3.8
2024-04-21T01:43:42.632Z,3.7
2024-04-21T01:44:56.924Z,3.7
2024-04-21T01:46:11.224Z,3.7
2024-04-21T01:47:25.520Z,3.7
2024-04-21T01:48:38.825Z,3.7
2024-04-21T01:49:53.120Z,3.6
2024-04-21T01:51:07.416Z,3.6
2024-04-21T01:52:21.712Z,3.6
2024-04-21T01:53:35.999Z,3.6
2024-04-21T01:54:50.292Z,3.5
2024-04-21T01:56:04.584Z,3.5
2024-04-21T01:57:18.883Z,3.5
2024-04-21T01:58:33.176Z,3.5
2024-04-21T01:59:47.471Z,3.5
2024-04-21T02:01:01.768Z,3.5
2024-04-21T02:02:16.056Z,3.4
2024-04-21T02:03:30.355Z,3.4
2024-04-21T02:04:43.663Z,3.4
2024-04-21T02:05:57.955Z,3.4
2024-04-21T02:07:12.254Z,3.4
2024-04-21T02:08:26.548Z,3.4
2024-04-21T02:09:40.840Z,3.4
2024-04-21T02:10:55.130Z,3.4
2024-04-21T02:12:09.430Z,3.4
2024-04-21T02:13:23.716Z,3.4
2024-04-21T02:14:38.015Z,3.4
2024-04-21T02:15:52.311Z,3.4
2024-04-21T02:17:06.600Z,3.4
2024-04-21T02:18:20.892Z,3.3
2024-04-21T02:19:35.186Z,3.4
2024-04-21T02:20:48.497Z,3.4
2024-04-21T02:22:02.793Z,3.3
2024-04-21T02:23:17.084Z,3.3
2024-04-21T02:24:31.381Z,3.3
2024-04-21T02:25:45.678Z,3.4
2024-04-21T02:26:59.969Z,3.3
2024-04-21T02:28:14.264Z,3.3
2024-04-21T02:29:28.557Z,3.3
2024-04-21T02:30:42.846Z,3.3
2024-04-21T02:31:57.148Z,3.4
2024-04-21T02:33:11.441Z,3.4
2024-04-21T02:34:25.736Z,3.4
2024-04-21T02:35:40.028Z,3.3
2024-04-21T02:36:53.340Z,3.3
2024-04-21T02:38:07.634Z,3.3
2024-04-21T02:39:21.921Z,3.4
2024-04-21T02:40:36.217Z,3.3
2024-04-21T02:41:50.507Z,3.4
2024-04-21T02:43:04.808Z,3.4
2024-04-21T02:44:19.096Z,3.4
2024-04-21T02:45:33.393Z,3.4
2024-04-21T02:46:47.735Z,3.4
2024-04-21T02:48:01.983Z,3.4
2024-04-21T02:49:16.270Z,3.4
2024-04-21T02:50:30.567Z,3.4
2024-04-21T02:51:44.860Z,3.4
2024-04-21T02:52:58.174Z,3.4
2024-04-21T02:54:12.462Z,3.4
2024-04-21T02:55:26.760Z,3.4
2024-04-21T02:56:41.057Z,3.4
2024-04-21T02:57:55.353Z,3.3
2024-04-21T02:59:09.646Z,3.3
2024-04-21T03:00:23.935Z,3.3
2024-04-21T03:01:36.079Z,3.3
2024-04-21T03:02:52.530Z,3.2
2024-04-21T03:04:06.816Z,3.2
2024-04-21T03:05:21.113Z,3.2
2024-04-21T03:06:35.409Z,3.2
2024-04-21T03:07:49.703Z,3.2
2024-04-21T03:09:03.009Z,3.1
2024-04-21T03:10:17.303Z,3.1
2024-04-21T03:11:31.593Z,3
2024-04-21T03:12:45.896Z,3
2024-04-21T03:14:00.185Z,3
2024-04-21T03:15:14.480Z,3
2024-04-21T03:16:28.776Z,2.9
2024-04-21T03:17:43.069Z,2.9
2024-04-21T03:18:57.364Z,2.9
2024-04-21T03:20:11.656Z,2.9
2024-04-21T03:21:25.945Z,2.8
2024-04-21T03:22:40.242Z,2.8
2024-04-21T03:23:54.537Z,2.8
2024-04-21T03:25:07.848Z,2.7
2024-04-21T03:26:22.136Z,2.7
2024-04-21T03:27:36.435Z,2.7
2024-04-21T03:28:50.732Z,2.6
2024-04-21T03:30:05.022Z,2.6
2024-04-21T03:31:19.317Z,2.6
2024-04-21T03:32:33.609Z,2.6
2024-04-21T03:33:47.902Z,2.5
2024-04-21T03:35:02.194Z,2.5
2024-04-21T03:36:16.496Z,2.5
2024-04-21T03:37:30.782Z,2.4
2024-04-21T03:38:45.079Z,2.4
2024-04-21T03:39:59.378Z,2.4
2024-04-21T03:41:12.686Z,2.4
2024-04-21T03:42:26.924Z,2.4
2024-04-21T03:43:41.172Z,2.3
2024-04-21T03:44:55.415Z,2.3
2024-04-21T03:46:09.657Z,2.3
2024-04-21T03:47:23.953Z,2.3
2024-04-21T03:48:38.248Z,2.3
2024-04-21T03:49:52.495Z,2.2
2024-04-21T03:51:06.732Z,2.2
2024-04-21T03:52:20.990Z,2.2
2024-04-21T03:53:35.223Z,2.2
2024-04-21T03:54:49.469Z,2.1
2024-04-21T03:56:03.712Z,2.1
2024-04-21T03:57:16.973Z,2.1
2024-04-21T03:58:31.215Z,2.1
2024-04-21T03:59:45.451Z,2.1
2024-04-21T04:00:59.691Z,2.1
2024-04-21T04:02:13.937Z,2
2024-04-21T04:03:28.177Z,2
2024-04-21T04:04:41.435Z,2
2024-04-21T04:05:55.679Z,2
2024-04-21T04:07:09.916Z,2
2024-04-21T04:08:24.151Z,2
2024-04-21T04:10:52.637Z,2
2024-04-21T04:12:06.875Z,2
2024-04-21T04:13:21.111Z,2
2024-04-21T04:14:35.352Z,2
2024-04-21T04:15:49.593Z,2
2024-04-21T04:17:03.838Z,2
2024-04-21T04:18:18.078Z,2.1
2024-04-21T04:19:32.314Z,2.1
2024-04-21T04:20:45.567Z,2.1
2024-04-21T04:21:59.808Z,2.1
2024-04-21T04:23:14.051Z,2.1
2024-04-21T04:24:28.295Z,2.1
2024-04-21T04:25:42.527Z,2.1
2024-04-21T04:26:56.774Z,2.2
2024-04-21T04:28:11.009Z,2.2
2024-04-21T04:29:25.255Z,2.2
2024-04-21T04:30:39.490Z,2.2
2024-04-21T04:31:53.732Z,2.2
2024-04-21T04:33:07.972Z,2.3
2024-04-21T04:34:22.208Z,2.3
2024-04-21T04:35:36.447Z,2.3
2024-04-21T04:36:49.710Z,2.3
2024-04-21T04:38:03.949Z,2.3
2024-04-21T04:39:18.184Z,2.4
2024-04-21T04:40:32.426Z,2.3
2024-04-21T04:41:46.661Z,2.4
2024-04-21T04:43:00.907Z,2.4
2024-04-21T04:44:15.145Z,2.4
2024-04-21T04:45:29.390Z,2.4
2024-04-21T04:46:43.629Z,2.4
2024-04-21T04:47:57.861Z,2.4
2024-04-21T04:49:12.110Z,2.4
2024-04-21T04:50:26.345Z,2.4
2024-04-21T04:51:40.584Z,2.4
2024-04-21T04:52:53.845Z,2.4
2024-04-21T04:54:08.084Z,2.4
2024-04-21T04:55:22.324Z,2.4
2024-04-21T04:56:36.557Z,2.4
2024-04-21T04:57:50.798Z,2.4
2024-04-21T04:59:05.045Z,2.4
2024-04-21T05:00:19.284Z,2.4
2024-04-21T05:01:33.518Z,2.4
2024-04-21T05:02:47.765Z,2.4
2024-04-21T05:04:02.005Z,2.4
2024-04-21T05:05:16.243Z,2.4
2024-04-21T05:06:30.484Z,2.4
2024-04-21T05:07:44.720Z,2.4
2024-04-21T05:08:57.982Z,2.4
2024-04-21T05:10:12.221Z,2.3
2024-04-21T05:11:26.458Z,2.3
2024-04-21T05:12:40.702Z,2.3
2024-04-21T05:13:54.939Z,2.3
2024-04-21T05:15:09.181Z,2.2
2024-04-21T05:17:37.658Z,2.1
2024-04-21T05:18:51.895Z,2.1
2024-04-21T05:20:06.139Z,2
2024-04-21T05:21:20.378Z,2
2024-04-21T05:22:34.615Z,1.9
2024-04-21T05:23:48.857Z,2
2024-04-21T05:25:02.112Z,1.9
2024-04-21T05:26:16.356Z,1.9
2024-04-21T05:27:30.598Z,1.9
2024-04-21T05:28:44.830Z,1.9
2024-04-21T05:29:59.073Z,1.9
2024-04-21T05:31:13.312Z,1.9
2024-04-21T05:32:27.558Z,1.9
2024-04-21T05:33:41.798Z,1.9
2024-04-21T05:34:56.035Z,1.9
2024-04-21T05:36:10.277Z,1.9
2024-04-21T05:37:24.516Z,2
2024-04-21T05:38:38.753Z,2
2024-04-21T05:39:52.991Z,2
2024-04-21T05:41:06.254Z,2
2024-04-21T05:42:20.491Z,2
2024-04-21T05:43:34.732Z,2.1
2024-04-21T05:44:48.971Z,2.1
2024-04-21T05:46:03.213Z,2.1
2024-04-21T05:47:17.444Z,2.1
2024-04-21T05:48:31.687Z,2.2
2024-04-21T05:49:45.933Z,2.2
2024-04-21T05:51:00.170Z,2.2
2024-04-21T05:52:14.405Z,2.3
2024-04-21T05:53:28.646Z,2.3
2024-04-21T05:54:42.889Z,2.4
2024-04-21T05:55:57.130Z,2.4
2024-04-21T05:57:10.383Z,2.4
2024-04-21T05:58:24.621Z,2.5
2024-04-21T05:59:38.865Z,2.5
2024-04-21T06:00:53.100Z,2.6
2024-04-21T06:02:07.339Z,2.6
2024-04-21T06:03:21.577Z,2.6
2024-04-21T06:04:35.826Z,2.7
2024-04-21T06:05:50.057Z,2.7
2024-04-21T06:07:04.300Z,2.8
2024-04-21T06:08:18.539Z,2.8
2024-04-21T06:09:32.782Z,2.8
2024-04-21T06:10:47.021Z,2.9
2024-04-21T06:12:01.262Z,2.9
2024-04-21T06:13:14.520Z,3
2024-04-21T06:14:28.760Z,3.1
2024-04-21T06:15:42.994Z,3.2
2024-04-21T06:16:57.230Z,3.3
2024-04-21T06:18:11.476Z,3.3
2024-04-21T06:19:25.719Z,3.5
2024-04-21T06:20:39.953Z,3.6
2024-04-21T06:21:54.199Z,3.7
2024-04-21T06:23:08.439Z,3.7
2024-04-21T06:24:22.671Z,3.8
2024-04-21T06:25:36.915Z,3.9
2024-04-21T06:26:51.152Z,3.9
2024-04-21T06:28:05.392Z,4
2024-04-21T06:29:18.654Z,4
2024-04-21T06:30:32.891Z,4
2024-04-21T06:31:47.128Z,4.1
2024-04-21T06:33:01.374Z,4.1
2024-04-21T06:34:15.609Z,4.2
2024-04-21T06:35:29.851Z,4.2
2024-04-21T06:36:44.093Z,4.3
2024-04-21T06:37:58.329Z,4.3
2024-04-21T06:39:12.572Z,4.4
2024-04-21T06:40:26.810Z,4.4
2024-04-21T06:41:41.050Z,4.5
2024-04-21T06:42:55.293Z,4.5
2024-04-21T06:44:09.528Z,4.6
2024-04-21T06:45:22.782Z,4.6
2024-04-21T06:46:37.023Z,4.6
2024-04-21T06:47:51.268Z,4.6
2024-04-21T06:49:05.509Z,4.7
2024-04-21T06:50:19.744Z,4.8
2024-04-21T06:51:33.981Z,4.9
2024-04-21T06:52:48.222Z,4.9
2024-04-21T06:54:02.463Z,5
2024-04-21T06:55:16.701Z,5.1
2024-04-21T06:56:30.946Z,5.3
2024-04-21T06:57:45.185Z,5.4
2024-04-21T06:58:59.424Z,5.6
2024-04-21T07:00:13.665Z,5.7
2024-04-21T07:01:26.922Z,5.8
2024-04-21T07:02:41.164Z,5.9
2024-04-21T07:03:55.402Z,5.9
2024-04-21T07:06:23.878Z,6
2024-04-21T07:07:38.115Z,6
2024-04-21T07:08:52.355Z,6
2024-04-21T07:10:06.599Z,5.9
2024-04-21T07:11:20.838Z,5.9
2024-04-21T07:12:35.073Z,5.8
2024-04-21T07:13:49.317Z,5.8
2024-04-21T07:15:03.554Z,5.7
2024-04-21T07:16:17.796Z,5.8
2024-04-21T07:17:31.045Z,5.8
2024-04-21T07:18:45.287Z,5.8
2024-04-21T07:19:59.530Z,5.8
2024-04-21T07:21:13.765Z,5.8
2024-04-21T07:22:28.009Z,5.8
2024-04-21T07:23:42.249Z,5.8
2024-04-21T07:24:56.487Z,5.8
2024-04-21T07:26:10.723Z,5.8
2024-04-21T07:27:24.968Z,5.8
2024-04-21T07:28:39.207Z,5.9
2024-04-21T07:29:53.442Z,6
2024-04-21T07:31:07.685Z,6
2024-04-21T07:32:21.925Z,6
2024-04-21T07:33:35.179Z,6
2024-04-21T07:34:49.418Z,6
2024-04-21T07:36:03.658Z,5.9
2024-04-21T07:37:17.897Z,5.9
2024-04-21T07:38:32.140Z,5.9
2024-04-21T07:39:46.372Z,5.8
2024-04-21T07:41:00.616Z,5.8
2024-04-21T07:42:14.855Z,5.7
2024-04-21T07:43:29.093Z,5.7
2024-04-21T07:44:43.334Z,5.7
2024-04-21T07:45:57.573Z,5.6
2024-04-21T07:47:11.809Z,5.6
2024-04-21T07:48:26.054Z,5.5
2024-04-21T07:49:39.304Z,5.5
2024-04-21T07:50:53.544Z,5.6
2024-04-21T07:52:07.782Z,5.6
2024-04-21T07:53:22.031Z,5.7
2024-04-21T07:54:36.268Z,5.7
2024-04-21T07:55:50.506Z,5.8
2024-04-21T07:57:04.741Z,5.9
2024-04-21T07:58:18.983Z,5.9
2024-04-21T07:59:33.223Z,5.9
2024-04-21T08:00:47.463Z,6
2024-04-21T08:02:01.703Z,6.1
2024-04-21T08:03:15.940Z,6.1
2024-04-21T08:04:30.181Z,6.2
2024-04-21T08:05:43.435Z,6.2
2024-04-21T08:06:57.680Z,6.3
2024-04-21T08:08:11.916Z,6.2
2024-04-21T08:09:26.150Z,6.2
2024-04-21T08:10:40.393Z,6.3
2024-04-21T08:11:54.632Z,6.3
2024-04-21T08:13:07.895Z,6.4
2024-04-21T08:14:22.137Z,6.5
2024-04-21T08:15:36.369Z,6.6
2024-04-21T08:16:50.611Z,6.7
2024-04-21T08:18:04.856Z,6.7
2024-04-21T08:19:19.096Z,6.8
2024-04-21T08:20:33.329Z,6.8
2024-04-21T08:21:47.570Z,6.9
2024-04-21T08:23:01.811Z,7
2024-04-21T08:24:16.053Z,7.1
2024-04-21T08:25:30.290Z,7.2
2024-04-21T08:26:44.526Z,7.2
2024-04-21T08:27:58.765Z,7.2
2024-04-21T08:29:12.025Z,7.1
2024-04-21T08:30:26.262Z,7.2
2024-04-21T08:31:40.503Z,7.1
2024-04-21T08:32:54.739Z,7.1
2024-04-21T08:34:08.978Z,7.1
2024-04-21T08:35:23.225Z,7.1
2024-04-21T08:36:37.462Z,7.2
2024-04-21T08:37:51.702Z,7.2
2024-04-21T08:39:05.937Z,7.3
2024-04-21T08:40:20.178Z,7.5
2024-04-21T08:41:34.416Z,7.6
2024-04-21T08:42:48.663Z,7.9
2024-04-21T08:45:17.134Z,7.7
2024-04-21T08:46:30.394Z,7.6
2024-04-21T08:47:44.636Z,7.5
2024-04-21T08:48:58.870Z,7.4
2024-04-21T08:50:13.115Z,7.5
2024-04-21T08:51:27.353Z,7.4
2024-04-21T08:52:41.593Z,7.6
2024-04-21T08:53:55.832Z,7.7
2024-04-21T08:55:10.067Z,7.7
2024-04-21T08:56:24.312Z,7.7
2024-04-21T08:57:38.552Z,7.7
2024-04-21T08:58:52.784Z,7.6
2024-04-21T09:00:07.031Z,7.5
2024-04-21T09:01:21.267Z,7.4
2024-04-21T09:02:34.521Z,7.3
2024-04-21T09:03:48.762Z,7.2
2024-04-21T09:05:03.000Z,7
2024-04-21T09:06:17.239Z,6.9
2024-04-21T09:07:31.485Z,6.9
2024-04-21T09:08:45.723Z,6.9
2024-04-21T09:09:59.961Z,6.9
2024-04-21T09:11:14.200Z,6.9
2024-04-21T09:12:28.444Z,6.9
2024-04-21T09:13:42.679Z,6.9
2024-04-21T09:14:56.923Z,6.9
2024-04-21T09:16:11.159Z,7
2024-04-21T09:17:25.395Z,7
2024-04-21T09:18:38.651Z,7.1
2024-04-21T09:19:52.895Z,7.1
2024-04-21T09:21:07.129Z,7.2
2024-04-21T09:22:21.371Z,7.2
2024-04-21T09:23:35.610Z,7.1
2024-04-21T09:24:49.855Z,7.1
2024-04-21T09:26:04.089Z,7.1
2024-04-21T09:27:18.336Z,7
2024-04-21T09:28:32.569Z,6.9
2024-04-21T09:29:46.808Z,6.9
2024-04-21T09:31:01.053Z,6.8
2024-04-21T09:32:15.287Z,6.8
2024-04-21T09:33:29.527Z,6.8
2024-04-21T09:34:42.786Z,6.9
2024-04-21T09:35:57.022Z,6.8
2024-04-21T09:37:11.269Z,6.8
2024-04-21T09:38:25.508Z,6.7
2024-04-21T09:39:39.742Z,6.8
2024-04-21T09:40:53.979Z,6.9
2024-04-21T09:42:08.227Z,6.9
2024-04-21T09:43:22.459Z,7
2024-04-21T09:44:36.698Z,6.9
2024-04-21T09:45:50.937Z,7
2024-04-21T09:47:05.185Z,7
2024-04-21T09:48:19.420Z,7.1
2024-04-21T09:49:33.656Z,7.2
2024-04-21T09:50:46.912Z,7.2
2024-04-21T09:52:01.156Z,7.1
2024-04-21T09:53:15.393Z,7.1
2024-04-21T09:54:29.635Z,7.2
2024-04-21T09:55:43.875Z,7.2
2024-04-21T09:56:58.114Z,7.3
2024-04-21T09:58:12.349Z,7.3
2024-04-21T09:59:26.593Z,7.4
2024-04-21T10:00:40.835Z,7.4
2024-04-21T10:01:55.068Z,7.4
2024-04-21T10:03:09.311Z,7.4
2024-04-21T10:04:23.547Z,7.4
2024-04-21T10:05:37.790Z,7.5
2024-04-21T10:06:51.043Z,7.6
2024-04-21T10:08:05.287Z,7.6
2024-04-21T10:09:19.528Z,7.7
2024-04-21T10:10:33.763Z,7.7
2024-04-21T10:11:48.000Z,7.7
2024-04-21T10:13:02.284Z,7.8
2024-04-21T10:14:16.485Z,7.8
2024-04-21T10:15:30.726Z,7.7
2024-04-21T10:16:44.961Z,7.7
2024-04-21T10:17:59.202Z,7.7
2024-04-21T10:19:13.441Z,7.9
2024-04-21T10:20:27.682Z,7.9
2024-04-21T10:21:41.918Z,8
2024-04-21T10:22:55.173Z,8.1
2024-04-21T10:24:09.419Z,8.2
2024-04-21T10:25:23.655Z,8.3
2024-04-21T10:26:37.889Z,8.3
2024-04-21T10:27:52.138Z,8.4
2024-04-21T10:29:06.372Z,8.4
2024-04-21T10:30:20.610Z,8.4
2024-04-21T10:31:34.856Z,8.4
2024-04-21T10:32:49.088Z,8.4
2024-04-21T10:34:03.335Z,8.5
2024-04-21T10:35:17.567Z,8.5
2024-04-21T10:36:31.809Z,8.5
2024-04-21T10:37:46.055Z,8.5
2024-04-21T10:38:59.309Z,8.6
2024-04-21T10:40:13.544Z,8.7
2024-04-21T10:41:27.791Z,8.8
2024-04-21T10:42:42.023Z,9
2024-04-21T10:43:56.269Z,9.2
2024-04-21T10:45:10.502Z,9.4
2024-04-21T10:46:24.741Z,9.5
2024-04-21T10:47:38.984Z,9.5
2024-04-21T10:50:07.465Z,9.3
2024-04-21T10:51:21.700Z,9.1
2024-04-21T10:52:35.944Z,8.9
2024-04-21T10:53:50.181Z,8.8
2024-04-21T10:55:03.440Z,8.8
2024-04-21T10:56:17.674Z,8.8
2024-04-21T10:57:31.926Z,8.8
2024-04-21T10:58:46.153Z,8.9
2024-04-21T11:00:00.400Z,9
2024-04-21T11:01:14.639Z,9.2
2024-04-21T11:02:28.872Z,9.3
2024-04-21T11:03:43.113Z,9.4
2024-04-21T11:04:57.355Z,9.3
2024-04-21T11:06:11.594Z,9.1
2024-04-21T11:07:25.833Z,9.1
2024-04-21T11:08:40.067Z,9.1
2024-04-21T11:09:54.313Z,9.3
2024-04-21T11:11:07.568Z,9.6
2024-04-21T11:12:21.802Z,10.1
2024-04-21T11:13:36.043Z,10.6
2024-04-21T11:14:50.282Z,11
2024-04-21T11:16:04.526Z,11.1
2024-04-21T11:17:18.766Z,11.4
2024-04-21T11:18:32.997Z,11.7
2024-04-21T11:19:47.246Z,11.7
2024-04-21T11:21:01.479Z,11.3
2024-04-21T11:22:15.722Z,11.2
2024-04-21T11:23:29.958Z,11.8
2024-04-21T11:24:44.197Z,12.4
2024-04-21T11:25:58.434Z,12.5
2024-04-21T11:27:11.691Z,12.2
2024-04-21T11:28:25.937Z,11.9
2024-04-21T11:29:40.175Z,11.5
2024-04-21T11:30:54.408Z,11.1
2024-04-21T11:32:08.647Z,11.5
2024-04-21T11:33:22.888Z,11.5
2024-04-21T11:34:37.127Z,11.5
2024-04-21T11:35:51.367Z,11.4
2024-04-21T11:37:05.607Z,11.4
2024-04-21T11:38:19.847Z,12.3
2024-04-21T11:39:34.084Z,13
2024-04-21T11:40:48.330Z,13.2
2024-04-21T11:42:02.566Z,12.8
2024-04-21T11:43:15.816Z,12.5
2024-04-21T11:44:30.055Z,12.5
2024-04-21T11:45:44.294Z,12.5
2024-04-21T11:46:58.541Z,12.3
2024-04-21T11:48:12.775Z,12
2024-04-21T11:49:27.014Z,11.9
2024-04-21T11:50:41.254Z,12.2
2024-04-21T11:51:55.488Z,12.7
2024-04-21T11:53:09.735Z,12.8
2024-04-21T11:54:23.973Z,12.7
2024-04-21T11:55:38.215Z,12.4
2024-04-21T11:56:52.452Z,12.4
2024-04-21T11:58:06.689Z,12.1
2024-04-21T11:59:19.942Z,11.7
2024-04-21T12:00:34.187Z,11.2
2024-04-21T12:01:48.426Z,11.9
2024-04-21T12:03:02.663Z,12.5
2024-04-21T12:04:16.903Z,12.8
2024-04-21T12:05:31.138Z,12.6
2024-04-21T12:06:45.377Z,12.5
2024-04-21T12:07:59.623Z,13
2024-04-21T12:09:13.884Z,13.6
2024-04-21T12:10:28.097Z,14.3
2024-04-21T12:11:42.335Z,15.1
2024-04-21T12:12:56.576Z,15
2024-04-21T12:14:10.817Z,14.6
2024-04-21T12:15:24.071Z,13.8
2024-04-21T12:16:38.317Z,13.2
2024-04-21T12:17:52.556Z,12.8
2024-04-21T12:19:06.793Z,12.4
2024-04-21T12:20:21.031Z,12.1
2024-04-21T12:21:34.290Z,11.7
2024-04-21T12:22:48.532Z,11.4
2024-04-21T12:24:02.775Z,11.1
2024-04-21T12:25:17.014Z,10.9
2024-04-21T12:26:31.254Z,11
2024-04-21T12:27:45.493Z,12.1
2024-04-21T12:28:59.725Z,12.9
2024-04-21T12:30:13.967Z,13.9
2024-04-21T12:31:28.210Z,14
2024-04-21T12:32:42.449Z,14
2024-04-21T12:33:56.685Z,14.3
2024-04-21T12:35:10.923Z,14.4
2024-04-21T12:36:25.168Z,15
2024-04-21T12:37:38.425Z,15.7
2024-04-21T12:38:52.662Z,15.7
2024-04-21T12:40:06.897Z,14.9
2024-04-21T12:41:21.134Z,14.9
2024-04-21T12:42:35.381Z,14.3
2024-04-21T12:43:49.620Z,13.7
2024-04-21T12:45:03.855Z,13.4
2024-04-21T12:46:18.096Z,14.2
2024-04-21T12:47:32.336Z,13.9
2024-04-21T12:48:46.572Z,13.6
2024-04-21T12:50:00.809Z,13.3
2024-04-21T12:51:15.046Z,12.7
2024-04-21T12:52:29.290Z,12.2
2024-04-21T12:53:42.544Z,11.9
2024-04-21T12:54:56.781Z,11.6
2024-04-21T12:56:11.021Z,11.5
2024-04-21T12:57:25.263Z,12.3
2024-04-21T12:58:39.502Z,12.2
2024-04-21T12:59:53.738Z,12.2
2024-04-21T13:01:07.982Z,12
2024-04-21T13:02:22.214Z,11.9
2024-04-21T13:03:36.453Z,12.1
2024-04-21T13:04:50.693Z,12.9
2024-04-21T13:07:19.199Z,14.6
2024-04-21T13:08:33.418Z,15.3
2024-04-21T13:09:46.672Z,16
2024-04-21T13:11:00.908Z,16.3
2024-04-21T13:12:15.151Z,16.5
2024-04-21T13:13:29.388Z,16.4
2024-04-21T13:14:43.621Z,16.2
2024-04-21T13:15:57.865Z,16.5
2024-04-21T13:17:12.106Z,16.3
2024-04-21T13:18:26.338Z,16.3
2024-04-21T13:19:40.576Z,16.2
2024-04-21T13:20:54.823Z,15.5
2024-04-21T13:22:09.061Z,15.1
2024-04-21T13:23:23.295Z,14.4
2024-04-21T13:24:37.537Z,13.7
2024-04-21T13:25:50.797Z,13.1
2024-04-21T13:27:05.033Z,12.6
2024-04-21T13:28:19.269Z,12.2
2024-04-21T13:29:33.510Z,11.8
2024-04-21T13:30:47.745Z,11.6
2024-04-21T13:32:01.994Z,12
2024-04-21T13:33:16.227Z,11.8
2024-04-21T13:35:44.710Z,11.5
2024-04-21T13:36:58.943Z,11.7
2024-04-21T13:38:13.185Z,11.7
2024-04-21T13:39:27.427Z,11.9
2024-04-21T13:40:41.659Z,12.7
2024-04-21T13:41:54.915Z,12.9
2024-04-21T13:43:09.161Z,13.8
2024-04-21T13:44:23.399Z,14.9
2024-04-21T13:45:37.631Z,15.8
2024-04-21T13:46:51.879Z,15.6
2024-04-21T13:48:06.113Z,15.7
2024-04-21T13:49:20.348Z,16
2024-04-21T13:50:34.591Z,15.2
2024-04-21T13:51:48.833Z,14.6
2024-04-21T13:53:03.068Z,15.3
2024-04-21T13:54:17.312Z,15.7
2024-04-21T13:55:31.549Z,15.7
2024-04-21T13:56:45.788Z,15.2
2024-04-21T13:57:59.045Z,15.2
2024-04-21T13:59:13.285Z,14.7
2024-04-21T14:00:27.517Z,14
2024-04-21T14:01:41.755Z,13.4
2024-04-21T14:02:55.994Z,13
2024-04-21T14:04:10.234Z,12.9
2024-04-21T14:05:24.475Z,12.7
2024-04-21T14:06:38.711Z,13.8
2024-04-21T14:07:52.957Z,13.5
2024-04-21T14:09:07.194Z,13.5
2024-04-21T14:10:21.436Z,13.1
2024-04-21T14:11:35.668Z,12.7
2024-04-21T14:12:49.908Z,12.4
2024-04-21T14:14:03.166Z,12.5
2024-04-21T14:15:17.403Z,13.2
2024-04-21T14:16:31.645Z,14.2
2024-04-21T14:17:45.883Z,14.7
2024-04-21T14:19:00.118Z,15.3
2024-04-21T14:20:14.368Z,16.1
2024-04-21T14:21:28.599Z,15.3
2024-04-21T14:22:42.843Z,14.6
2024-04-21T14:23:57.075Z,14.2
2024-04-21T14:25:11.320Z,13.7
2024-04-21T14:26:25.551Z,13.8
2024-04-21T14:27:39.795Z,14.2
2024-04-21T14:28:54.038Z,14.9
2024-04-21T14:30:07.284Z,15.6
2024-04-21T14:31:21.531Z,15.3
2024-04-21T14:32:35.770Z,15
2024-04-21T14:33:50.007Z,14.3
2024-04-21T14:35:04.244Z,13.7
2024-04-21T14:36:18.485Z,13.2
2024-04-21T14:37:32.726Z,12.7
2024-04-21T14:38:46.963Z,12.2
2024-04-21T14:40:01.203Z,11.8
2024-04-21T14:41:15.439Z,11.5
2024-04-21T14:42:29.674Z,11.3
2024-04-21T14:43:43.919Z,11.1
2024-04-21T14:44:58.160Z,10.9
2024-04-21T14:46:11.411Z,10.9
2024-04-21T14:47:25.649Z,10.9
2024-04-21T14:48:39.889Z,11.8
2024-04-21T14:49:54.129Z,12.1
2024-04-21T14:51:08.368Z,12.7
2024-04-21T14:52:22.610Z,12.8
2024-04-21T14:53:36.843Z,12.8
2024-04-21T14:54:51.091Z,12.5
2024-04-21T14:56:05.323Z,12.2
2024-04-21T14:57:19.570Z,12
2024-04-21T14:58:33.805Z,11.7
2024-04-21T14:59:48.042Z,12.4
2024-04-21T15:01:02.282Z,12.4
2024-04-21T15:02:15.538Z,12.1
2024-04-21T15:03:29.780Z,11.9
2024-04-21T15:04:44.017Z,11.6
2024-04-21T15:05:58.253Z,11.3
2024-04-21T15:07:12.495Z,11.1
2024-04-21T15:08:26.741Z,10.8
2024-04-21T15:09:40.979Z,10.6
2024-04-21T15:10:55.214Z,10.4
2024-04-21T15:12:09.452Z,10.2
2024-04-21T15:13:23.695Z,10.1
2024-04-21T15:14:37.932Z,10
2024-04-21T15:15:52.175Z,10
2024-04-21T15:17:06.409Z,9.9
2024-04-21T15:18:19.669Z,9.8
2024-04-21T15:19:33.906Z,9.7
2024-04-21T15:20:48.144Z,9.6
2024-04-21T15:22:02.383Z,9.5
2024-04-21T15:23:16.623Z,9.5
2024-04-21T15:24:30.862Z,9.4
2024-04-21T15:25:45.106Z,9.4
2024-04-21T15:26:59.343Z,9.4
2024-04-21T15:28:13.580Z,9.5
2024-04-21T15:29:27.815Z,9.5
2024-04-21T15:30:42.056Z,9.4
2024-04-21T15:31:56.298Z,9.4
2024-04-21T15:33:10.537Z,9.4
2024-04-21T15:34:23.792Z,9.5
2024-04-21T15:35:38.036Z,10.8
2024-04-21T15:36:52.276Z,11.9
2024-04-21T15:38:06.515Z,12.7
2024-04-21T15:39:20.752Z,13.4
2024-04-21T15:40:34.998Z,13.8
2024-04-21T15:41:49.225Z,14.3
2024-04-21T15:43:03.469Z,14.7
2024-04-21T15:44:17.708Z,15.1
2024-04-21T15:45:31.947Z,15.6
2024-04-21T15:46:46.183Z,15.9
2024-04-21T15:48:00.425Z,16.2
2024-04-21T15:49:14.659Z,16.5
2024-04-21T15:50:27.915Z,16.6
2024-04-21T15:51:42.160Z,16.7
2024-04-21T15:52:56.402Z,16.2
2024-04-21T15:54:10.642Z,15.1
2024-04-21T15:55:24.877Z,14
2024-04-21T15:56:39.112Z,13.2
2024-04-21T15:57:53.353Z,12.4
2024-04-21T15:59:07.596Z,11.8
2024-04-21T16:00:21.836Z,11.3
2024-04-21T16:01:36.074Z,10.8
2024-04-21T16:02:50.309Z,10.3
2024-04-21T16:04:04.556Z,10
2024-04-21T16:05:18.796Z,9.7
2024-04-21T16:06:32.048Z,9.4
2024-04-21T16:07:46.287Z,9.2
2024-04-21T16:09:00.530Z,9
2024-04-21T16:10:14.769Z,8.9
2024-04-21T16:11:29.006Z,8.8
2024-04-21T16:12:43.247Z,8.7
2024-04-21T16:13:57.484Z,9.3
2024-04-21T16:15:11.726Z,10
2024-04-21T16:16:25.960Z,10.6
2024-04-21T16:17:40.202Z,10.9
2024-04-21T16:18:54.435Z,10.9
2024-04-21T16:20:08.677Z,11
2024-04-21T16:22:37.160Z,11.1
2024-04-21T16:23:50.415Z,11.1
2024-04-21T16:25:04.655Z,11.1
2024-04-21T16:26:18.891Z,11.1
2024-04-21T16:27:33.131Z,11
2024-04-21T16:28:47.369Z,11
2024-04-21T16:30:01.605Z,10.9
2024-04-21T16:31:14.872Z,11
2024-04-21T16:32:29.106Z,10.9
2024-04-21T16:33:43.348Z,10.8
2024-04-21T16:34:57.586Z,10.8
2024-04-21T16:36:11.822Z,10.7
2024-04-21T16:37:26.066Z,10.7
2024-04-21T16:38:40.303Z,10.7
2024-04-21T16:39:54.540Z,10.7
2024-04-21T16:41:08.784Z,10.5
2024-04-21T16:42:23.018Z,10.4
2024-04-21T16:43:37.259Z,10.2
2024-04-21T16:44:51.500Z,10
2024-04-21T16:46:05.744Z,9.8
2024-04-21T16:47:18.996Z,9.7
2024-04-21T16:48:33.234Z,9.5
2024-04-21T16:49:47.473Z,9.4
2024-04-21T16:51:01.714Z,9.3
2024-04-21T16:52:15.954Z,9.1
2024-04-21T16:53:30.188Z,9
2024-04-21T16:54:44.430Z,9
2024-04-21T16:55:58.670Z,8.9
2024-04-21T16:57:12.906Z,8.8
2024-04-21T16:58:27.147Z,8.8
2024-04-21T16:59:41.387Z,8.7
2024-04-21T17:00:55.628Z,8.7
2024-04-21T17:02:09.872Z,8.6
2024-04-21T17:03:23.125Z,8.6
2024-04-21T17:04:37.359Z,8.6
2024-04-21T17:05:51.599Z,8.5
2024-04-21T17:07:05.836Z,8.4
2024-04-21T17:08:20.079Z,8.3
2024-04-21T17:09:34.317Z,8.3
2024-04-21T17:10:48.554Z,8.2